sensor_id;sensor_type;location;lat;lon;timestamp;pressure;altitude;pressure_sealevel;temperature;humidity
17593;BME280;8915;51.760;14.300;2022-08-30T00:00:52;101280.03;;;13.67;100.00
17593;BME280;8915;51.760;14.300;2022-08-30T00:03:29;101280.81;;;13.69;100.00
17593;BME280;8915;51.760;14.300;2022-08-30T00:05:56;101282.41;;;13.75;100.00
17593;BME280;8915;51.760;14.300;2022-08-30T00:08:22;101288.56;;;13.74;100.00
17593;BME280;8915;51.760;14.300;2022-08-30T00:10:48;101289.22;;;13.80;100.00
17593;BME280;8915;51.760;14.300;2022-08-30T00:13:17;101289.91;;;13.87;100.00
17593;BME280;8915;51.760;14.300;2022-08-30T00:15:44;101285.75;;;13.80;100.00
17593;BME280;8915;51.760;14.300;2022-08-30T00:18:11;101288.34;;;13.81;100.00
17593;BME280;8915;51.760;14.300;2022-08-30T00:20:41;101273.41;;;13.83;100.00
17593;BME280;8915;51.760;14.300;2022-08-30T00:23:08;101276.03;;;13.83;100.00
17593;BME280;8915;51.760;14.300;2022-08-30T00:25:34;101278.91;;;13.76;100.00
17593;BME280;8915;51.760;14.300;2022-08-30T00:28:01;101272.94;;;13.71;100.00
17593;BME280;8915;51.760;14.300;2022-08-30T00:30:27;101273.75;;;13.73;100.00
17593;BME280;8915;51.760;14.300;2022-08-30T00:32:54;101272.28;;;13.62;100.00
17593;BME280;8915;51.760;14.300;2022-08-30T00:35:21;101272.19;;;13.66;100.00
17593;BME280;8915;51.760;14.300;2022-08-30T00:37:50;101270.34;;;13.69;100.00
17593;BME280;8915;51.760;14.300;2022-08-30T00:40:18;101266.19;;;13.62;100.00
17593;BME280;8915;51.760;14.300;2022-08-30T00:42:46;101268.13;;;13.55;100.00
17593;BME280;8915;51.760;14.300;2022-08-30T00:45:15;101272.81;;;13.44;100.00
17593;BME280;8915;51.760;14.300;2022-08-30T00:47:42;101270.16;;;13.46;100.00
17593;BME280;8915;51.760;14.300;2022-08-30T00:50:10;101268.34;;;13.48;100.00
17593;BME280;8915;51.760;14.300;2022-08-30T00:52:38;101275.28;;;13.49;100.00
17593;BME280;8915;51.760;14.300;2022-08-30T00:55:08;101269.28;;;13.45;100.00
17593;BME280;8915;51.760;14.300;2022-08-30T00:57:34;101271.34;;;13.34;100.00
17593;BME280;8915;51.760;14.300;2022-08-30T01:00:03;101266.06;;;13.35;100.00
17593;BME280;8915;51.760;14.300;2022-08-30T01:02:30;101269.66;;;13.30;100.00
17593;BME280;8915;51.760;14.300;2022-08-30T01:04:59;101263.56;;;13.29;100.00
17593;BME280;8915;51.760;14.300;2022-08-30T01:07:26;101267.28;;;13.20;100.00
17593;BME280;8915;51.760;14.300;2022-08-30T01:09:53;101271.69;;;13.20;100.00
17593;BME280;8915;51.760;14.300;2022-08-30T01:12:21;101278.75;;;13.16;100.00
17593;BME280;8915;51.760;14.300;2022-08-30T01:14:47;101263.97;;;13.14;100.00
17593;BME280;8915;51.760;14.300;2022-08-30T01:17:15;101277.13;;;13.12;100.00
17593;BME280;8915;51.760;14.300;2022-08-30T01:19:46;101263.91;;;13.17;100.00
17593;BME280;8915;51.760;14.300;2022-08-30T01:22:20;101275.41;;;13.11;100.00
17593;BME280;8915;51.760;14.300;2022-08-30T01:24:51;101269.63;;;12.98;100.00
17593;BME280;8915;51.760;14.300;2022-08-30T01:27:20;101270.41;;;13.02;100.00
17593;BME280;8915;51.760;14.300;2022-08-30T01:29:47;101276.00;;;12.88;100.00
17593;BME280;8915;51.760;14.300;2022-08-30T01:32:15;101271.53;;;12.92;100.00
17593;BME280;8915;51.760;14.300;2022-08-30T01:34:43;101269.97;;;12.84;100.00
17593;BME280;8915;51.760;14.300;2022-08-30T01:37:09;101269.41;;;12.72;100.00
17593;BME280;8915;51.760;14.300;2022-08-30T01:39:36;101275.47;;;12.75;100.00
17593;BME280;8915;51.760;14.300;2022-08-30T01:42:04;101275.38;;;12.77;100.00
17593;BME280;8915;51.760;14.300;2022-08-30T01:44:31;101278.00;;;12.77;100.00
17593;BME280;8915;51.760;14.300;2022-08-30T01:46:57;101272.94;;;12.71;100.00
17593;BME280;8915;51.760;14.300;2022-08-30T01:49:23;101280.28;;;12.56;100.00
17593;BME280;8915;51.760;14.300;2022-08-30T01:51:50;101274.88;;;12.62;100.00
17593;BME280;8915;51.760;14.300;2022-08-30T01:54:16;101274.03;;;12.62;100.00
17593;BME280;8915;51.760;14.300;2022-08-30T01:56:42;101285.50;;;12.56;100.00
17593;BME280;8915;51.760;14.300;2022-08-30T01:59:10;101283.19;;;12.44;100.00
17593;BME280;8915;51.760;14.300;2022-08-30T02:01:37;101286.72;;;12.41;100.00
17593;BME280;8915;51.760;14.300;2022-08-30T02:04:04;101288.38;;;12.45;100.00
17593;BME280;8915;51.760;14.300;2022-08-30T02:06:31;101274.41;;;12.45;100.00
17593;BME280;8915;51.760;14.300;2022-08-30T02:08:58;101279.81;;;12.39;100.00
17593;BME280;8915;51.760;14.300;2022-08-30T02:11:24;101287.00;;;12.29;100.00
17593;BME280;8915;51.760;14.300;2022-08-30T02:13:51;101285.28;;;12.28;100.00
17593;BME280;8915;51.760;14.300;2022-08-30T02:16:20;101282.34;;;12.42;100.00
17593;BME280;8915;51.760;14.300;2022-08-30T02:18:48;101276.31;;;12.38;100.00
17593;BME280;8915;51.760;14.300;2022-08-30T02:21:15;101275.75;;;12.25;100.00
17593;BME280;8915;51.760;14.300;2022-08-30T02:23:42;101274.84;;;12.26;100.00
17593;BME280;8915;51.760;14.300;2022-08-30T02:26:09;101273.28;;;12.19;100.00
17593;BME280;8915;51.760;14.300;2022-08-30T02:28:36;101274.19;;;12.17;100.00
17593;BME280;8915;51.760;14.300;2022-08-30T02:31:02;101277.00;;;12.09;100.00
17593;BME280;8915;51.760;14.300;2022-08-30T02:33:30;101275.28;;;12.06;100.00
17593;BME280;8915;51.760;14.300;2022-08-30T02:35:56;101276.06;;;12.10;100.00
17593;BME280;8915;51.760;14.300;2022-08-30T02:38:23;101280.34;;;12.16;100.00
17593;BME280;8915;51.760;14.300;2022-08-30T02:40:50;101275.25;;;12.08;100.00
17593;BME280;8915;51.760;14.300;2022-08-30T02:43:17;101280.34;;;12.16;100.00
17593;BME280;8915;51.760;14.300;2022-08-30T02:45:44;101278.59;;;12.15;100.00
17593;BME280;8915;51.760;14.300;2022-08-30T02:48:10;101277.72;;;12.16;100.00
17593;BME280;8915;51.760;14.300;2022-08-30T02:50:39;101279.47;;;12.13;100.00
17593;BME280;8915;51.760;14.300;2022-08-30T02:53:06;101285.59;;;12.14;100.00
17593;BME280;8915;51.760;14.300;2022-08-30T02:55:32;101287.50;;;12.06;100.00
17593;BME280;8915;51.760;14.300;2022-08-30T02:57:59;101282.38;;;12.01;100.00
17593;BME280;8915;51.760;14.300;2022-08-30T03:00:25;101283.44;;;11.92;100.00
17593;BME280;8915;51.760;14.300;2022-08-30T03:02:52;101285.88;;;12.00;100.00
17593;BME280;8915;51.760;14.300;2022-08-30T03:05:18;101288.50;;;12.00;100.00
17593;BME280;8915;51.760;14.300;2022-08-30T03:07:46;101280.69;;;11.99;100.00
17593;BME280;8915;51.760;14.300;2022-08-30T03:10:14;101284.03;;;12.05;100.00
17593;BME280;8915;51.760;14.300;2022-08-30T03:12:41;101287.72;;;11.97;100.00
17593;BME280;8915;51.760;14.300;2022-08-30T03:15:10;101286.84;;;11.96;100.00
17593;BME280;8915;51.760;14.300;2022-08-30T03:17:37;101286.88;;;11.95;100.00
17593;BME280;8915;51.760;14.300;2022-08-30T03:20:05;101281.50;;;12.01;100.00
17593;BME280;8915;51.760;14.300;2022-08-30T03:22:33;101280.75;;;11.96;100.00
17593;BME280;8915;51.760;14.300;2022-08-30T03:25:00;101292.19;;;11.88;100.00
17593;BME280;8915;51.760;14.300;2022-08-30T03:27:27;101299.94;;;11.96;100.00
17593;BME280;8915;51.760;14.300;2022-08-30T03:29:54;101294.00;;;11.85;100.00
17593;BME280;8915;51.760;14.300;2022-08-30T03:32:21;101303.50;;;11.89;100.00
17593;BME280;8915;51.760;14.300;2022-08-30T03:34:48;101297.97;;;11.61;100.00
17593;BME280;8915;51.760;14.300;2022-08-30T03:37:14;101296.31;;;11.56;100.00
17593;BME280;8915;51.760;14.300;2022-08-30T03:39:41;101300.19;;;11.81;100.00
17593;BME280;8915;51.760;14.300;2022-08-30T03:42:11;101299.22;;;11.86;100.00
17593;BME280;8915;51.760;14.300;2022-08-30T03:44:37;101299.25;;;11.85;100.00
17593;BME280;8915;51.760;14.300;2022-08-30T03:47:04;101308.88;;;11.83;100.00
17593;BME280;8915;51.760;14.300;2022-08-30T03:49:31;101306.09;;;11.92;100.00
17593;BME280;8915;51.760;14.300;2022-08-30T03:51:57;101312.53;;;11.74;100.00
17593;BME280;8915;51.760;14.300;2022-08-30T03:54:24;101318.38;;;11.85;100.00
17593;BME280;8915;51.760;14.300;2022-08-30T03:56:50;101320.97;;;11.87;100.00
17593;BME280;8915;51.760;14.300;2022-08-30T03:59:18;101319.00;;;12.00;100.00
17593;BME280;8915;51.760;14.300;2022-08-30T04:01:45;101322.41;;;12.05;100.00
17593;BME280;8915;51.760;14.300;2022-08-30T04:04:12;101323.28;;;12.04;100.00
17593;BME280;8915;51.760;14.300;2022-08-30T04:06:38;101324.19;;;12.01;100.00
17593;BME280;8915;51.760;14.300;2022-08-30T04:09:05;101320.63;;;12.05;100.00
17593;BME280;8915;51.760;14.300;2022-08-30T04:11:31;101325.09;;;12.00;100.00
17593;BME280;8915;51.760;14.300;2022-08-30T04:13:58;101320.50;;;12.10;100.00
17593;BME280;8915;51.760;14.300;2022-08-30T04:16:26;101323.09;;;12.11;100.00
17593;BME280;8915;51.760;14.300;2022-08-30T04:18:53;101326.63;;;12.10;100.00
17593;BME280;8915;51.760;14.300;2022-08-30T04:21:19;101327.44;;;12.12;100.00
17593;BME280;8915;51.760;14.300;2022-08-30T04:23:45;101329.25;;;12.09;100.00
17593;BME280;8915;51.760;14.300;2022-08-30T04:26:12;101328.28;;;12.13;100.00
17593;BME280;8915;51.760;14.300;2022-08-30T04:28:38;101325.75;;;12.10;100.00
17593;BME280;8915;51.760;14.300;2022-08-30T04:31:06;101329.22;;;12.12;100.00
17593;BME280;8915;51.760;14.300;2022-08-30T04:33:34;101334.31;;;12.17;100.00
17593;BME280;8915;51.760;14.300;2022-08-30T04:36:02;101329.06;;;12.18;100.00
17593;BME280;8915;51.760;14.300;2022-08-30T04:38:30;101339.13;;;12.37;100.00
17593;BME280;8915;51.760;14.300;2022-08-30T04:40:56;101336.66;;;12.29;100.00
17593;BME280;8915;51.760;14.300;2022-08-30T04:43:23;101341.09;;;12.25;100.00
17593;BME280;8915;51.760;14.300;2022-08-30T04:45:51;101342.03;;;12.23;100.00
17593;BME280;8915;51.760;14.300;2022-08-30T04:48:18;101345.03;;;12.45;100.00
17593;BME280;8915;51.760;14.300;2022-08-30T04:50:47;101343.22;;;12.47;100.00
17593;BME280;8915;51.760;14.300;2022-08-30T04:53:14;101351.22;;;12.41;100.00
17593;BME280;8915;51.760;14.300;2022-08-30T04:55:42;101343.38;;;12.41;100.00
17593;BME280;8915;51.760;14.300;2022-08-30T04:58:09;101351.00;;;12.52;100.00
17593;BME280;8915;51.760;14.300;2022-08-30T05:00:36;101347.63;;;12.46;100.00
17593;BME280;8915;51.760;14.300;2022-08-30T05:03:02;101351.84;;;12.52;100.00
17593;BME280;8915;51.760;14.300;2022-08-30T05:05:29;101354.47;;;12.52;100.00
17593;BME280;8915;51.760;14.300;2022-08-30T05:08:06;101358.63;;;12.61;100.00
17593;BME280;8915;51.760;14.300;2022-08-30T05:10:33;101356.75;;;12.66;100.00
17593;BME280;8915;51.760;14.300;2022-08-30T05:12:59;101355.75;;;12.72;100.00
17593;BME280;8915;51.760;14.300;2022-08-30T05:15:25;101359.97;;;12.79;100.00
17593;BME280;8915;51.760;14.300;2022-08-30T05:17:52;101358.84;;;12.89;100.00
17593;BME280;8915;51.760;14.300;2022-08-30T05:20:18;101363.91;;;12.97;100.00
17593;BME280;8915;51.760;14.300;2022-08-30T05:22:45;101364.13;;;12.87;100.00
17593;BME280;8915;51.760;14.300;2022-08-30T05:25:17;101367.38;;;12.97;100.00
17593;BME280;8915;51.760;14.300;2022-08-30T05:27:43;101368.00;;;13.07;100.00
17593;BME280;8915;51.760;14.300;2022-08-30T05:30:11;101373.28;;;13.05;100.00
17593;BME280;8915;51.760;14.300;2022-08-30T05:32:38;101372.00;;;13.22;100.00
17593;BME280;8915;51.760;14.300;2022-08-30T05:35:05;101370.81;;;13.35;100.00
17593;BME280;8915;51.760;14.300;2022-08-30T05:37:32;101374.97;;;13.44;100.00
17593;BME280;8915;51.760;14.300;2022-08-30T05:39:58;101381.03;;;13.46;100.00
17593;BME280;8915;51.760;14.300;2022-08-30T05:42:26;101384.53;;;13.45;100.00
17593;BME280;8915;51.760;14.300;2022-08-30T05:44:53;101380.09;;;13.47;100.00
17593;BME280;8915;51.760;14.300;2022-08-30T05:47:20;101376.53;;;13.51;100.00
17593;BME280;8915;51.760;14.300;2022-08-30T05:49:47;101382.59;;;13.53;100.00
17593;BME280;8915;51.760;14.300;2022-08-30T05:52:14;101382.59;;;13.53;100.00
17593;BME280;8915;51.760;14.300;2022-08-30T05:54:42;101388.41;;;13.63;100.00
17593;BME280;8915;51.760;14.300;2022-08-30T05:57:09;101383.03;;;13.69;100.00
17593;BME280;8915;51.760;14.300;2022-08-30T05:59:37;101381.06;;;13.77;100.00
17593;BME280;8915;51.760;14.300;2022-08-30T06:02:03;101385.47;;;13.75;100.00
17593;BME280;8915;51.760;14.300;2022-08-30T06:04:31;101388.63;;;13.88;100.00
17593;BME280;8915;51.760;14.300;2022-08-30T06:06:57;101386.59;;;13.98;100.00
17593;BME280;8915;51.760;14.300;2022-08-30T06:09:24;101400.09;;;14.15;100.00
17593;BME280;8915;51.760;14.300;2022-08-30T06:11:50;101390.97;;;14.29;100.00
17593;BME280;8915;51.760;14.300;2022-08-30T06:14:16;101386.56;;;14.29;100.00
17593;BME280;8915;51.760;14.300;2022-08-30T06:16:44;101389.88;;;14.36;100.00
17593;BME280;8915;51.760;14.300;2022-08-30T06:19:12;101387.94;;;14.43;100.00
17593;BME280;8915;51.760;14.300;2022-08-30T06:21:40;101380.56;;;14.55;100.00
17593;BME280;8915;51.760;14.300;2022-08-30T06:24:09;101387.31;;;14.64;100.00
17593;BME280;8915;51.760;14.300;2022-08-30T06:26:37;101382.69;;;14.72;100.00
17593;BME280;8915;51.760;14.300;2022-08-30T06:29:05;101383.47;;;14.76;100.00
17593;BME280;8915;51.760;14.300;2022-08-30T06:31:31;101386.78;;;14.81;100.00
17593;BME280;8915;51.760;14.300;2022-08-30T06:33:59;101383.34;;;14.79;100.00
17593;BME280;8915;51.760;14.300;2022-08-30T06:36:26;101380.28;;;14.93;100.00
17593;BME280;8915;51.760;14.300;2022-08-30T06:38:54;101385.06;;;15.07;100.00
17593;BME280;8915;51.760;14.300;2022-08-30T06:41:23;101383.13;;;15.13;100.00
17593;BME280;8915;51.760;14.300;2022-08-30T06:43:49;101376.69;;;15.22;100.00
17593;BME280;8915;51.760;14.300;2022-08-30T06:46:18;101374.56;;;15.33;100.00
17593;BME280;8915;51.760;14.300;2022-08-30T06:48:46;101377.72;;;15.43;100.00
17593;BME280;8915;51.760;14.300;2022-08-30T06:51:14;101375.09;;;15.43;100.00
17593;BME280;8915;51.760;14.300;2022-08-30T06:53:40;101381.72;;;15.55;100.00
17593;BME280;8915;51.760;14.300;2022-08-30T06:56:09;101378.53;;;15.70;100.00
17593;BME280;8915;51.760;14.300;2022-08-30T06:58:37;101374.88;;;15.76;100.00
17593;BME280;8915;51.760;14.300;2022-08-30T07:01:05;101375.44;;;15.84;100.00
17593;BME280;8915;51.760;14.300;2022-08-30T07:03:33;101386.38;;;15.97;100.00
17593;BME280;8915;51.760;14.300;2022-08-30T07:05:59;101383.31;;;16.09;100.00
17593;BME280;8915;51.760;14.300;2022-08-30T07:08:27;101382.88;;;15.97;100.00
17593;BME280;8915;51.760;14.300;2022-08-30T07:10:53;101375.91;;;15.96;100.00
17593;BME280;8915;51.760;14.300;2022-08-30T07:13:20;101378.09;;;16.08;100.00
17593;BME280;8915;51.760;14.300;2022-08-30T07:15:48;101382.44;;;16.09;100.00
17593;BME280;8915;51.760;14.300;2022-08-30T07:18:15;101381.91;;;16.23;100.00
17593;BME280;8915;51.760;14.300;2022-08-30T07:21:05;101389.44;;;16.32;100.00
17593;BME280;8915;51.760;14.300;2022-08-30T07:23:33;101388.13;;;16.44;100.00
17593;BME280;8915;51.760;14.300;2022-08-30T07:26:02;101390.59;;;16.49;100.00
17593;BME280;8915;51.760;14.300;2022-08-30T07:28:29;101391.34;;;16.52;100.00
17593;BME280;8915;51.760;14.300;2022-08-30T07:30:55;101386.69;;;16.59;100.00
17593;BME280;8915;51.760;14.300;2022-08-30T07:33:22;101396.53;;;16.54;100.00
17593;BME280;8915;51.760;14.300;2022-08-30T07:35:48;101405.19;;;16.57;100.00
17593;BME280;8915;51.760;14.300;2022-08-30T07:38:14;101405.66;;;16.67;100.00
17593;BME280;8915;51.760;14.300;2022-08-30T07:40:42;101402.41;;;16.84;100.00
17593;BME280;8915;51.760;14.300;2022-08-30T07:43:09;101410.22;;;17.08;100.00
17593;BME280;8915;51.760;14.300;2022-08-30T07:45:35;101416.88;;;17.16;100.00
17593;BME280;8915;51.760;14.300;2022-08-30T07:48:02;101423.16;;;17.14;100.00
17593;BME280;8915;51.760;14.300;2022-08-30T07:50:29;101419.00;;;17.29;100.00
17593;BME280;8915;51.760;14.300;2022-08-30T07:52:56;101417.59;;;17.42;100.00
17593;BME280;8915;51.760;14.300;2022-08-30T07:55:22;101418.66;;;17.58;100.00
17593;BME280;8915;51.760;14.300;2022-08-30T07:57:50;101418.19;;;17.69;100.00
17593;BME280;8915;51.760;14.300;2022-08-30T08:00:17;101421.34;;;17.57;100.00
17593;BME280;8915;51.760;14.300;2022-08-30T08:02:43;101427.88;;;17.69;100.00
17593;BME280;8915;51.760;14.300;2022-08-30T08:05:09;101420.00;;;17.89;100.00
17593;BME280;8915;51.760;14.300;2022-08-30T08:07:38;101428.75;;;17.90;100.00
17593;BME280;8915;51.760;14.300;2022-08-30T08:10:06;101428.88;;;18.07;100.00
17593;BME280;8915;51.760;14.300;2022-08-30T08:12:33;101433.50;;;18.02;100.00
17593;BME280;8915;51.760;14.300;2022-08-30T08:15:02;101430.16;;;18.17;100.00
17593;BME280;8915;51.760;14.300;2022-08-30T08:17:28;101435.81;;;18.29;100.00
17593;BME280;8915;51.760;14.300;2022-08-30T08:19:55;101428.59;;;18.32;100.00
17593;BME280;8915;51.760;14.300;2022-08-30T08:22:21;101435.81;;;18.29;100.00
17593;BME280;8915;51.760;14.300;2022-08-30T08:24:48;101428.25;;;18.21;100.00
17593;BME280;8915;51.760;14.300;2022-08-30T08:27:14;101430.69;;;18.26;100.00
17593;BME280;8915;51.760;14.300;2022-08-30T08:29:41;101429.81;;;18.25;100.00
17593;BME280;8915;51.760;14.300;2022-08-30T08:32:08;101434.50;;;18.19;100.00
17593;BME280;8915;51.760;14.300;2022-08-30T08:34:35;101425.81;;;18.16;100.00
17593;BME280;8915;51.760;14.300;2022-08-30T08:37:02;101432.69;;;18.21;100.00
17593;BME280;8915;51.760;14.300;2022-08-30T08:39:28;101439.22;;;18.31;100.00
17593;BME280;8915;51.760;14.300;2022-08-30T08:41:59;101441.22;;;18.45;100.00
17593;BME280;8915;51.760;14.300;2022-08-30T08:44:41;101446.75;;;18.40;100.00
17593;BME280;8915;51.760;14.300;2022-08-30T08:47:16;101440.44;;;18.43;100.00
17593;BME280;8915;51.760;14.300;2022-08-30T08:49:44;101441.09;;;18.48;100.00
17593;BME280;8915;51.760;14.300;2022-08-30T08:52:15;101444.88;;;18.42;100.00
17593;BME280;8915;51.760;14.300;2022-08-30T08:55:06;101448.81;;;18.33;100.00
17593;BME280;8915;51.760;14.300;2022-08-30T08:57:35;101444.31;;;18.35;100.00
17593;BME280;8915;51.760;14.300;2022-08-30T09:00:03;101437.53;;;18.49;100.00
17593;BME280;8915;51.760;14.300;2022-08-30T09:02:36;101433.44;;;18.61;100.00
17593;BME280;8915;51.760;14.300;2022-08-30T09:05:05;101429.19;;;18.77;100.00
17593;BME280;8915;51.760;14.300;2022-08-30T09:07:35;101432.88;;;18.92;100.00
17593;BME280;8915;51.760;14.300;2022-08-30T09:10:04;101429.00;;;18.99;100.00
17593;BME280;8915;51.760;14.300;2022-08-30T09:12:30;101432.69;;;19.14;100.00
17593;BME280;8915;51.760;14.300;2022-08-30T09:15:00;101446.56;;;19.37;100.00
17593;BME280;8915;51.760;14.300;2022-08-30T09:17:28;101442.44;;;19.48;100.00
17593;BME280;8915;51.760;14.300;2022-08-30T09:19:59;101436.38;;;19.64;100.00
17593;BME280;8915;51.760;14.300;2022-08-30T09:22:32;101433.75;;;19.81;100.00
17593;BME280;8915;51.760;14.300;2022-08-30T09:25:01;101443.13;;;20.04;100.00
17593;BME280;8915;51.760;14.300;2022-08-30T09:27:32;101443.59;;;20.29;100.00
17593;BME280;8915;51.760;14.300;2022-08-30T09:30:03;101432.94;;;20.30;100.00
17593;BME280;8915;51.760;14.300;2022-08-30T09:32:36;101439.06;;;20.31;100.00
17593;BME280;8915;51.760;14.300;2022-08-30T09:35:07;101448.13;;;20.27;100.00
17593;BME280;8915;51.760;14.300;2022-08-30T09:37:37;101439.13;;;20.13;100.00
17593;BME280;8915;51.760;14.300;2022-08-30T09:40:12;101438.94;;;20.00;100.00
17593;BME280;8915;51.760;14.300;2022-08-30T09:42:40;101436.59;;;19.94;100.00
17593;BME280;8915;51.760;14.300;2022-08-30T09:45:19;101435.38;;;19.66;100.00
17593;BME280;8915;51.760;14.300;2022-08-30T09:47:53;101433.44;;;19.53;100.00
17593;BME280;8915;51.760;14.300;2022-08-30T09:50:21;101439.28;;;19.42;100.00
17593;BME280;8915;51.760;14.300;2022-08-30T09:52:58;101437.59;;;19.22;100.00
17593;BME280;8915;51.760;14.300;2022-08-30T09:55:44;101431.63;;;19.36;100.00
17593;BME280;8915;51.760;14.300;2022-08-30T09:58:19;101438.09;;;19.65;100.00
17593;BME280;8915;51.760;14.300;2022-08-30T10:00:51;101439.94;;;19.98;100.00
17593;BME280;8915;51.760;14.300;2022-08-30T10:03:26;101439.81;;;20.17;100.00
17593;BME280;8915;51.760;14.300;2022-08-30T10:06:03;101442.56;;;20.31;100.00
17593;BME280;8915;51.760;14.300;2022-08-30T10:08:43;101441.72;;;20.31;100.00
17593;BME280;8915;51.760;14.300;2022-08-30T10:11:16;101438.91;;;20.34;100.00
17593;BME280;8915;51.760;14.300;2022-08-30T10:13:56;101448.75;;;20.48;100.00
17593;BME280;8915;51.760;14.300;2022-08-30T10:16:34;101444.22;;;20.34;100.00
17593;BME280;8915;51.760;14.300;2022-08-30T10:19:16;101444.09;;;20.19;100.00
17593;BME280;8915;51.760;14.300;2022-08-30T10:21:48;101443.25;;;20.01;100.00
17593;BME280;8915;51.760;14.300;2022-08-30T10:24:20;101438.72;;;19.88;100.00
17593;BME280;8915;51.760;14.300;2022-08-30T10:26:51;101441.72;;;19.97;100.00
17593;BME280;8915;51.760;14.300;2022-08-30T10:29:22;101439.94;;;19.98;100.00
17593;BME280;8915;51.760;14.300;2022-08-30T10:31:53;101438.09;;;20.00;100.00
17593;BME280;8915;51.760;14.300;2022-08-30T10:34:25;101443.44;;;19.98;100.00
17593;BME280;8915;51.760;14.300;2022-08-30T10:36:57;101440.84;;;19.81;100.00
17593;BME280;8915;51.760;14.300;2022-08-30T10:39:30;101446.31;;;19.94;100.00
17593;BME280;8915;51.760;14.300;2022-08-30T10:42:02;101441.13;;;19.92;100.00
17593;BME280;8915;51.760;14.300;2022-08-30T10:44:33;101430.91;;;20.02;100.00
17593;BME280;8915;51.760;14.300;2022-08-30T10:47:09;101430.28;;;19.97;100.00
17593;BME280;8915;51.760;14.300;2022-08-30T10:49:44;101425.94;;;19.96;100.00
17593;BME280;8915;51.760;14.300;2022-08-30T10:52:21;101426.22;;;20.07;100.00
17593;BME280;8915;51.760;14.300;2022-08-30T10:54:50;101422.34;;;20.46;100.00
17593;BME280;8915;51.760;14.300;2022-08-30T10:57:18;101422.91;;;20.69;100.00
17593;BME280;8915;51.760;14.300;2022-08-30T10:59:48;101426.31;;;20.71;100.00
17593;BME280;8915;51.760;14.300;2022-08-30T11:02:38;101431.00;;;20.66;100.00
17593;BME280;8915;51.760;14.300;2022-08-30T11:05:26;101432.97;;;20.78;100.00
17593;BME280;8915;51.760;14.300;2022-08-30T11:08:03;101430.16;;;20.81;100.00
17593;BME280;8915;51.760;14.300;2022-08-30T11:10:45;101430.34;;;20.62;100.00
17593;BME280;8915;51.760;14.300;2022-08-30T11:13:20;101420.25;;;20.69;100.00
17593;BME280;8915;51.760;14.300;2022-08-30T11:15:55;101417.84;;;20.80;100.00
17593;BME280;8915;51.760;14.300;2022-08-30T11:18:22;101418.53;;;20.84;100.00
17593;BME280;8915;51.760;14.300;2022-08-30T11:20:52;101416.72;;;20.84;100.00
17593;BME280;8915;51.760;14.300;2022-08-30T11:23:31;101421.59;;;20.92;100.00
17593;BME280;8915;51.760;14.300;2022-08-30T11:26:02;101422.09;;;20.98;100.00
17593;BME280;8915;51.760;14.300;2022-08-30T11:28:59;101422.38;;;20.78;100.00
17593;BME280;8915;51.760;14.300;2022-08-30T11:31:31;101418.41;;;21.01;100.00
17593;BME280;8915;51.760;14.300;2022-08-30T11:34:00;101416.94;;;21.11;100.00
17593;BME280;8915;51.760;14.300;2022-08-30T11:39:50;101407.66;;;20.88;100.00
17593;BME280;8915;51.760;14.300;2022-08-30T11:42:27;101398.69;;;20.91;100.00
17593;BME280;8915;51.760;14.300;2022-08-30T11:48:01;101397.41;;;20.82;100.00
17593;BME280;8915;51.760;14.300;2022-08-30T11:50:31;101398.44;;;20.79;100.00
17593;BME280;8915;51.760;14.300;2022-08-30T11:53:04;101389.72;;;20.93;100.00
17593;BME280;8915;51.760;14.300;2022-08-30T11:55:47;101398.50;;;20.94;100.00
17593;BME280;8915;51.760;14.300;2022-08-30T11:58:31;101404.31;;;21.01;91.19
17593;BME280;8915;51.760;14.300;2022-08-30T12:01:17;101394.16;;;21.23;91.46
17593;BME280;8915;51.760;14.300;2022-08-30T12:03:52;101398.53;;;21.38;94.43
17593;BME280;8915;51.760;14.300;2022-08-30T12:06:44;101405.47;;;21.41;84.73
17593;BME280;8915;51.760;14.300;2022-08-30T12:12:51;101386.88;;;21.57;90.03
17593;BME280;8915;51.760;14.300;2022-08-30T12:15:49;101382.16;;;21.77;94.27
17593;BME280;8915;51.760;14.300;2022-08-30T12:18:17;101383.28;;;21.87;95.46
17593;BME280;8915;51.760;14.300;2022-08-30T12:20:55;101386.31;;;21.81;83.09
17593;BME280;8915;51.760;14.300;2022-08-30T12:23:32;101386.78;;;21.87;78.86
17593;BME280;8915;51.760;14.300;2022-08-30T12:26:11;101382.53;;;21.85;78.24
17593;BME280;8915;51.760;14.300;2022-08-30T12:28:40;101373.81;;;21.97;82.45
17593;BME280;8915;51.760;14.300;2022-08-30T12:31:09;101376.81;;;22.05;79.17
17593;BME280;8915;51.760;14.300;2022-08-30T12:33:41;101377.03;;;22.17;79.85
17593;BME280;8915;51.760;14.300;2022-08-30T12:36:12;101378.44;;;22.37;77.53
17593;BME280;8915;51.760;14.300;2022-08-30T12:38:39;101372.66;;;22.44;78.22
17593;BME280;8915;51.760;14.300;2022-08-30T12:41:06;101368.50;;;22.53;75.18
17593;BME280;8915;51.760;14.300;2022-08-30T12:43:35;101374.69;;;22.54;75.15
17593;BME280;8915;51.760;14.300;2022-08-30T12:46:06;101363.66;;;22.60;73.43
17593;BME280;8915;51.760;14.300;2022-08-30T12:48:35;101364.78;;;22.70;76.24
17593;BME280;8915;51.760;14.300;2022-08-30T12:51:04;101356.69;;;22.72;77.98
17593;BME280;8915;51.760;14.300;2022-08-30T12:53:33;101352.19;;;22.59;78.05
17593;BME280;8915;51.760;14.300;2022-08-30T12:56:03;101356.59;;;22.46;79.48
17593;BME280;8915;51.760;14.300;2022-08-30T12:58:35;101345.81;;;22.35;79.49
17593;BME280;8915;51.760;14.300;2022-08-30T13:01:17;101342.63;;;22.57;79.73